Time;durP1;ratioP1;P1;durP2;ratioP2;P2;SDS_P1;SDS_P2;PMS_P1;PMS_P2;Temp;Humidity;BMP_temperature;BMP_pressure;BME280_temperature;BME280_humidity;BME280_pressure;Samples;Min_cycle;Max_cycle;Signal;HPM_P1;HPM_P2
2021/09/12 00:00:35;;;;;;;8.07;3.13;;;16.10;98.20;;;;;;4831513;29;20058;-93
2021/09/12 00:03:45;;;;;;;12.13;4.40;;;16.00;98.50;;;;;;4851181;29;20049;-94
2021/09/12 00:06:32;;;;;;;7.82;3.72;;;16.10;98.60;;;;;;4848630;29;20076;-93
2021/09/12 00:09:31;;;;;;;8.30;2.95;;;16.10;98.90;;;;;;4827321;29;20053;-93
2021/09/12 00:12:27;;;;;;;9.65;3.15;;;15.90;98.80;;;;;;4813588;29;20057;-92
2021/09/12 00:15:26;;;;;;;10.52;3.15;;;15.90;98.80;;;;;;4839911;29;20053;-93
2021/09/12 00:18:43;;;;;;;;;;;15.80;98.90;;;;;;4852156;29;20066;-93
2021/09/12 00:22:13;;;;;;;4.90;2.85;;;15.80;98.90;;;;;;4851573;29;19921;-93
2021/09/12 00:25:19;;;;;;;12.75;4.03;;;15.80;99.00;;;;;;4824810;29;20043;-93
2021/09/12 00:34:39;;;;;;;9.10;3.10;;;15.80;99.30;;;;;;4831819;24;20057;-94
2021/09/12 00:38:21;;;;;;;11.07;3.40;;;15.60;99.50;;;;;;4836397;29;20050;-93
2021/09/12 00:41:15;;;;;;;8.98;3.55;;;15.30;99.50;;;;;;4820546;29;20062;-93
2021/09/12 00:44:31;;;;;;;14.45;4.28;;;15.50;99.70;;;;;;4859734;29;20049;-93
2021/09/12 00:47:18;;;;;;;9.82;2.85;;;15.40;99.90;;;;;;4828664;29;20050;-92
2021/09/12 14:00:25;;;;;;;2.72;1.42;;;21.70;91.40;;;;;;4948191;23;20042;-91
2021/09/12 14:14:56;;;;;;;3.42;1.50;;;21.80;91.50;;;;;;4874096;29;20061;-94
2021/09/12 14:51:23;;;;;;;3.88;1.40;;;22.00;91.70;;;;;;4882694;29;20063;-92
2021/09/12 14:58:43;;;;;;;5.32;2.10;;;21.90;91.80;;;;;;4849990;29;20058;-92
2021/09/12 15:01:54;;;;;;;5.15;2.03;;;21.60;91.50;;;;;;4831016;29;20062;-93
2021/09/12 15:05:28;;;;;;;5.18;1.75;;;21.90;91.80;;;;;;4849007;29;20064;-92
2021/09/12 15:08:17;;;;;;;5.40;2.65;;;22.00;91.50;;;;;;4826490;29;20054;-93
2021/09/12 15:16:43;;;;;;;5.90;1.90;;;22.10;91.80;;;;;;4834850;29;20050;-92
2021/09/12 15:20:03;;;;;;;2.83;1.60;;;22.20;91.60;;;;;;4825687;29;20046;-93
2021/09/12 15:28:02;;;;;;;3.60;2.20;;;22.30;91.60;;;;;;4768258;30;20080;-93
2021/09/12 15:31:55;;;;;;;3.65;1.95;;;22.30;91.60;;;;;;4773928;30;20069;-93
2021/09/12 15:35:43;;;;;;;5.40;1.73;;;22.40;91.80;;;;;;4761870;30;20056;-92
2021/09/12 15:38:40;;;;;;;4.40;1.85;;;21.80;91.10;;;;;;4745817;30;20056;-90
2021/09/12 15:42:05;;;;;;;7.07;2.40;;;22.60;91.60;;;;;;4822555;29;20060;-90
2021/09/12 15:45:24;;;;;;;3.90;2.13;;;22.50;91.30;;;;;;4846247;29;20051;-89
2021/09/12 15:48:08;;;;;;;6.80;2.22;;;22.60;91.30;;;;;;4853414;24;20056;-92
2021/09/12 15:55:44;;;;;;;7.25;2.08;;;22.70;91.20;;;;;;4863062;29;20065;-92
2021/09/12 16:08:28;;;;;;;4.90;2.10;;;22.70;90.90;;;;;;4845819;29;20056;-92
2021/09/12 16:20:18;;;;;;;7.40;2.40;;;23.50;90.70;;;;;;4916780;23;20049;-91
2021/09/12 16:27:52;;;;;;;4.55;2.00;;;23.60;89.70;;;;;;4857537;29;20043;-91
2021/09/12 16:34:57;;;;;;;5.50;2.35;;;23.30;90.00;;;;;;4855960;29;20057;-91
2021/09/12 16:37:48;;;;;;;3.10;1.95;;;22.50;90.10;;;;;;4832573;29;20052;-92
2021/09/12 16:48:38;;;;;;;3.75;2.35;;;22.70;90.80;;;;;;4872299;29;20049;-92
2021/09/12 16:51:58;;;;;;;4.90;2.53;;;22.60;91.30;;;;;;4846959;29;20064;-92
2021/09/12 16:54:59;;;;;;;3.20;1.80;;;22.50;90.90;;;;;;4844979;29;20046;-91
2021/09/12 16:58:22;;;;;;;5.55;2.13;;;22.50;91.00;;;;;;4860627;29;20060;-91
2021/09/12 17:06:12;;;;;;;4.57;2.28;;;22.30;91.10;;;;;;4865430;29;20029;-91
2021/09/12 17:08:45;;;;;;;4.82;2.17;;;22.20;91.30;;;;;;4842710;29;20054;-91
2021/09/12 17:11:20;;;;;;;3.50;1.63;;;22.10;91.30;;;;;;4831474;29;20422;-91
2021/09/12 17:13:58;;;;;;;7.60;2.05;;;22.00;91.30;;;;;;4819034;29;20045;-92
2021/09/12 17:16:34;;;;;;;3.33;1.77;;;21.90;91.30;;;;;;4846224;29;20489;-92
2021/09/12 17:19:06;;;;;;;3.47;1.52;;;21.90;91.60;;;;;;4828444;29;20042;-91
2021/09/12 17:22:24;;;;;;;2.63;1.80;;;21.80;91.60;;;;;;4821290;29;20046;-92
2021/09/12 17:24:55;;;;;;;5.38;1.75;;;21.80;91.40;;;;;;4856006;29;20030;-91
2021/09/12 17:27:43;;;;;;;4.40;1.83;;;21.70;91.40;;;;;;4806262;29;20047;-92
2021/09/12 17:35:00;;;;;;;5.90;1.55;;;21.50;91.40;;;;;;4843234;29;20064;-92
2021/09/12 17:37:44;;;;;;;3.33;1.70;;;21.50;91.70;;;;;;4844636;29;20054;-91
2021/09/12 17:48:38;;;;;;;3.67;1.88;;;21.20;92.00;;;;;;4793302;30;20070;-91
2021/09/12 17:51:14;;;;;;;3.53;1.70;;;21.20;92.20;;;;;;4799618;29;20045;-92
2021/09/12 17:57:39;;;;;;;3.33;1.67;;;21.00;92.40;;;;;;4808546;29;20071;-91
2021/09/12 18:00:18;;;;;;;;;;;21.00;92.60;;;;;;4802267;29;20066;-91
2021/09/12 18:02:51;;;;;;;5.13;2.15;;;20.00;92.50;;;;;;4791838;30;19930;-92
2021/09/12 18:06:11;;;;;;;5.30;3.13;;;20.80;92.70;;;;;;4785516;29;20159;-93
2021/09/12 18:13:48;;;;;;;9.60;3.17;;;20.50;93.30;;;;;;4946932;23;20053;-92
2021/09/12 18:16:54;;;;;;;9.15;3.28;;;20.40;93.30;;;;;;4868258;29;20056;-92
2021/09/12 18:21:29;;;;;;;8.75;3.70;;;20.30;93.80;;;;;;4821371;29;20083;-93
2021/09/12 18:24:48;;;;;;;11.68;4.03;;;20.20;94.40;;;;;;4782001;30;20059;-92
2021/09/12 18:27:50;;;;;;;7.35;3.45;;;20.10;94.70;;;;;;4790672;29;20073;-93
2021/09/12 18:32:16;;;;;;;11.30;3.45;;;20.00;94.50;;;;;;4804702;29;20055;-93
2021/09/12 18:34:58;;;;;;;7.03;3.33;;;20.20;95.50;;;;;;4924779;24;20066;-92
2021/09/12 18:38:46;;;;;;;8.20;3.90;;;19.70;95.40;;;;;;4841171;29;20054;-93
2021/09/12 18:46:17;;;;;;;9.75;4.32;;;19.40;96.40;;;;;;4848240;29;20073;-93
2021/09/12 18:49:01;;;;;;;8.52;4.10;;;19.30;96.60;;;;;;4848586;29;20061;-93
2021/09/12 18:55:47;;;;;;;18.05;5.15;;;19.10;97.00;;;;;;4834743;29;20038;-93
2021/09/12 18:58:46;;;;;;;14.75;6.07;;;19.00;96.90;;;;;;4843428;29;20064;-93
2021/09/12 19:06:28;;;;;;;12.45;5.82;;;18.80;97.60;;;;;;4863701;29;20061;-93
2021/09/12 19:10:05;;;;;;;10.70;4.45;;;18.70;97.30;;;;;;4835889;29;20038;-91
2021/09/12 19:17:20;;;;;;;14.93;5.43;;;18.50;98.10;;;;;;4864814;29;20041;-93
2021/09/12 19:20:24;;;;;;;11.82;5.13;;;18.40;98.00;;;;;;4839222;29;20060;-92
2021/09/12 19:31:17;;;;;;;13.45;6.15;;;17.30;98.40;;;;;;4856464;27;20030;-92
2021/09/12 19:34:08;;;;;;;14.48;6.57;;;18.30;98.80;;;;;;4837762;29;20050;-93
2021/09/12 19:44:42;;;;;;;12.18;4.88;;;18.00;98.90;;;;;;4843123;23;20041;31
2021/09/12 19:50:43;;;;;;;16.73;7.32;;;17.90;98.70;;;;;;5085746;23;20024;-91
2021/09/12 19:53:19;;;;;;;18.50;8.35;;;19.00;99.40;;;;;;4827376;29;20043;-92
2021/09/12 19:56:42;;;;;;;13.88;7.03;;;18.00;99.10;;;;;;4849766;29;20065;-92
2021/09/12 20:00:21;;;;;;;14.55;6.88;;;18.90;99.50;;;;;;4849373;29;20044;-93
2021/09/12 20:03:09;;;;;;;14.75;6.70;;;17.80;99.10;;;;;;4841770;29;20056;-92
2021/09/12 20:15:55;;;;;;;16.35;7.63;;;17.60;99.30;;;;;;5068531;23;20037;-94
2021/09/12 20:19:58;;;;;;;;;;;;;;;;;;;;;
2021/09/12 20:22:45;;;;;;;15.13;7.50;;;17.50;99.70;;;;;;4829498;29;20072;-93
2021/09/12 20:25:44;;;;;;;12.80;6.35;;;16.90;99.80;;;;;;4851086;29;20244;-93
2021/09/12 20:28:50;;;;;;;14.10;6.28;;;17.40;99.90;;;;;;4866251;29;20057;-94
2021/09/12 20:32:11;;;;;;;15.17;6.17;;;17.30;99.70;;;;;;4841684;29;20058;-94
2021/09/12 20:35:31;;;;;;;15.95;5.82;;;17.30;99.90;;;;;;4777825;30;20299;-94
2021/09/12 20:42:12;;;;;;;13.18;7.35;;;17.20;99.90;;;;;;4998419;24;20034;-93
2021/09/12 20:44:47;;;;;;;12.57;6.18;;;17.20;99.90;;;;;;4864009;29;20054;-93
2021/09/12 20:47:53;;;;;;;15.75;6.68;;;17.20;99.90;;;;;;5047744;23;20052;-93
2021/09/12 20:54:06;;;;;;;16.58;8.10;;;17.20;99.90;;;;;;5493811;23;22018;-93
2021/09/12 20:57:16;;;;;;;14.85;6.80;;;17.20;99.90;;;;;;4842458;29;20057;-93
2021/09/12 21:04:44;;;;;;;14.85;6.28;;;17.10;99.90;;;;;;4893560;23;20064;-94
2021/09/12 21:09:22;;;;;;;16.15;7.70;;;17.10;99.90;;;;;;5375490;23;20058;31
2021/09/12 21:14:09;;;;;;;12.25;6.97;;;17.30;99.90;;;;;;4881191;29;20052;-93
2021/09/12 21:16:47;;;;;;;13.48;7.97;;;17.10;99.90;;;;;;4864852;29;20040;-93
2021/09/12 21:19:17;;;;;;;12.82;6.82;;;17.10;99.90;;;;;;4857235;29;20039;-93
2021/09/12 21:36:49;;;;;;;16.52;8.73;;;17.10;99.90;;;;;;4868957;29;20048;-93
2021/09/12 21:39:50;;;;;;;14.48;8.48;;;16.90;99.90;;;;;;4873638;29;20052;-93
2021/09/12 21:48:09;;;;;;;15.10;7.95;;;16.20;99.90;;;;;;4865745;29;20038;-90
2021/09/12 21:50:39;;;;;;;;;;;16.90;99.90;;;;;;4851659;29;20056;-91
2021/09/12 21:57:21;;;;;;;12.77;7.13;;;16.80;99.90;;;;;;4866175;29;20064;-91
2021/09/12 21:59:50;;;;;;;19.05;7.40;;;16.90;99.90;;;;;;4881027;29;20054;-91
2021/09/12 22:02:37;;;;;;;20.85;8.73;;;15.70;99.90;;;;;;4863654;29;20061;-93
2021/09/12 22:05:16;;;;;;;19.35;10.10;;;16.80;99.90;;;;;;4833684;29;20057;-92
2021/09/12 22:07:59;;;;;;;17.20;8.10;;;16.80;99.90;;;;;;4835405;29;20050;-91
2021/09/12 22:11:01;;;;;;;17.60;9.38;;;16.70;99.90;;;;;;4843949;29;20065;-91
2021/09/12 22:13:33;;;;;;;17.52;9.50;;;16.90;99.90;;;;;;4825980;29;20051;-90
2021/09/12 22:16:23;;;;;;;;;;;16.80;99.90;;;;;;4834289;29;20080;-91
2021/09/12 22:19:13;;;;;;;19.67;10.55;;;15.50;99.90;;;;;;4848683;29;19913;-91
2021/09/12 22:21:48;;;;;;;19.95;8.93;;;16.20;99.90;;;;;;4847858;29;20049;-91
2021/09/12 22:24:33;;;;;;;23.40;10.48;;;16.80;99.90;;;;;;4847140;29;20048;-92
2021/09/12 22:27:18;;;;;;;19.55;10.82;;;16.90;99.90;;;;;;4822839;29;20045;-91
2021/09/12 22:29:50;;;;;;;20.75;10.10;;;17.00;99.90;;;;;;4844671;29;20031;-90
2021/09/12 22:32:30;;;;;;;16.70;10.20;;;16.90;99.90;;;;;;4817151;29;20042;-89
2021/09/12 22:35:17;;;;;;;21.88;11.70;;;16.90;99.90;;;;;;4807621;29;20046;-91
2021/09/12 22:37:45;;;;;;;26.35;11.70;;;17.70;99.90;;;;;;4834078;29;20043;-91
2021/09/12 22:43:53;;;;;;;18.83;10.07;;;17.00;99.90;;;;;;4842510;29;19913;-91
2021/09/12 22:46:35;;;;;;;23.10;10.13;;;17.00;99.90;;;;;;4847045;29;20050;-91
2021/09/12 22:49:05;;;;;;;20.27;12.02;;;17.00;99.90;;;;;;4843864;29;20065;-91
2021/09/12 22:51:38;;;;;;;26.35;11.52;;;17.00;99.90;;;;;;4816953;29;20068;-90
2021/09/12 22:54:27;;;;;;;24.38;11.02;;;17.10;99.90;;;;;;4845573;29;20042;-91
2021/09/12 22:56:58;;;;;;;24.70;10.52;;;17.00;99.90;;;;;;4804102;29;20042;-91
2021/09/12 23:00:08;;;;;;;18.98;9.70;;;17.10;99.90;;;;;;4825109;29;20057;-92
2021/09/12 23:02:50;;;;;;;19.50;10.15;;;17.10;99.90;;;;;;4832047;29;20031;-90
2021/09/12 23:05:19;;;;;;;21.63;10.75;;;17.10;99.90;;;;;;4872751;24;20039;-92
2021/09/12 23:07:49;;;;;;;19.23;9.98;;;17.10;99.90;;;;;;4878611;24;21166;-91
2021/09/12 23:10:23;;;;;;;16.73;9.15;;;17.20;99.90;;;;;;4858033;29;20041;-91
2021/09/12 23:13:25;;;;;;;19.02;9.95;;;17.10;99.90;;;;;;4856377;29;20050;-90
2021/09/12 23:16:08;;;;;;;23.27;11.73;;;17.20;99.90;;;;;;4864430;29;20048;-90
2021/09/12 23:21:45;;;;;;;22.70;11.02;;;17.20;99.90;;;;;;4882886;29;20068;-91
2021/09/12 23:24:18;;;;;;;15.80;9.77;;;17.30;99.90;;;;;;4820382;29;20057;-90
2021/09/12 23:26:52;;;;;;;22.35;9.63;;;17.20;99.90;;;;;;4844483;29;20047;-90
2021/09/12 23:29:30;;;;;;;23.73;10.32;;;17.20;99.90;;;;;;4839071;29;20047;-90
2021/09/12 23:38:11;;;;;;;26.90;10.98;;;17.00;99.90;;;;;;4895191;29;20043;-91
2021/09/12 23:50:35;;;;;;;;;;;;;;;;;;;;;
